createdAt,value
2022-12-17T00:00:47.367Z,4.53
2022-12-17T00:03:35.624Z,7.95
2022-12-17T00:06:21.470Z,11.10
2022-12-17T00:09:07.080Z,6.57
2022-12-17T00:11:58.917Z,5.15
2022-12-17T00:14:44.404Z,4.43
2022-12-17T00:17:32.133Z,4.72
2022-12-17T00:20:22.458Z,6.38
2022-12-17T00:23:24.857Z,6.50
2022-12-17T00:29:24.914Z,5.07
2022-12-17T00:32:11.612Z,10.20
2022-12-17T00:34:57.616Z,5.10
2022-12-17T00:37:44.895Z,5.38
2022-12-17T00:40:31.250Z,6.55
2022-12-17T00:43:20.955Z,7.28
2022-12-17T00:46:07.424Z,3.15
2022-12-17T00:48:53.514Z,8.05
2022-12-17T00:51:39.929Z,5.35
2022-12-17T00:54:29.594Z,21.55
2022-12-17T00:57:15.382Z,6.75
2022-12-17T01:00:01.080Z,3.17
2022-12-17T01:02:46.497Z,3.60
2022-12-17T01:05:32.499Z,6.47
2022-12-17T01:08:29.121Z,4.50
2022-12-17T01:11:19.736Z,12.32
2022-12-17T01:14:07.898Z,7.95
2022-12-17T01:16:53.910Z,5.22
2022-12-17T01:19:42.049Z,3.70
2022-12-17T01:22:29.928Z,7.82
2022-12-17T01:25:15.534Z,4.18
2022-12-17T01:28:02.808Z,4.47
2022-12-17T01:30:48.532Z,3.75
2022-12-17T01:33:36.225Z,1.95
2022-12-17T01:36:22.855Z,3.25
2022-12-17T01:39:08.401Z,4.50
2022-12-17T01:41:54.373Z,4.85
2022-12-17T01:45:11.518Z,3.88
2022-12-17T01:48:00.989Z,5.55
2022-12-17T01:50:48.533Z,2.35
2022-12-17T01:53:36.465Z,4.95
2022-12-17T01:56:25.127Z,6.20
2022-12-17T01:59:14.007Z,6.88
2022-12-17T02:02:03.557Z,2.75
2022-12-17T02:05:01.132Z,4.28
2022-12-17T02:08:04.035Z,3.30
2022-12-17T02:10:58.469Z,4.25
2022-12-17T02:13:49.855Z,4.03
2022-12-17T02:16:41.889Z,4.63
2022-12-17T02:19:42.750Z,2.40
2022-12-17T02:22:39.327Z,6.68
2022-12-17T02:25:33.925Z,3.55
2022-12-17T02:28:23.621Z,4.38
2022-12-17T02:31:13.573Z,4.90
2022-12-17T02:34:02.944Z,2.95
2022-12-17T02:36:48.652Z,7.82
2022-12-17T02:39:34.602Z,2.17
2022-12-17T02:42:20.596Z,1.80
2022-12-17T02:45:08.029Z,1.77
2022-12-17T02:47:54.569Z,3.13
2022-12-17T02:50:41.208Z,0.45
2022-12-17T02:53:26.768Z,3.53
2022-12-17T02:56:24.321Z,1.92
2022-12-17T02:59:09.744Z,1.77
2022-12-17T03:01:57.051Z,1.55
2022-12-17T03:04:46.906Z,3.50
2022-12-17T03:07:32.356Z,0.77
2022-12-17T03:10:17.855Z,1.17
2022-12-17T03:13:03.451Z,0.52
2022-12-17T03:15:49.574Z,1.48
2022-12-17T03:18:36.775Z,3.38
2022-12-17T03:21:24.149Z,1.98
2022-12-17T03:24:09.994Z,1.10
2022-12-17T03:26:55.677Z,1.25
2022-12-17T03:29:41.702Z,2.70
2022-12-17T03:32:27.156Z,2.22
2022-12-17T03:35:26.871Z,1.55
2022-12-17T03:38:12.583Z,1.15
2022-12-17T03:40:58.275Z,1.10
2022-12-17T03:43:44.270Z,5.38
2022-12-17T03:46:29.740Z,0.85
2022-12-17T03:49:15.193Z,1.35
2022-12-17T03:52:04.543Z,2.85
2022-12-17T03:54:49.757Z,3.88
2022-12-17T03:57:35.520Z,1.40
2022-12-17T04:00:21.198Z,4.90
2022-12-17T04:03:07.012Z,1.83
2022-12-17T04:05:58.244Z,2.28
2022-12-17T04:08:45.197Z,1.05
2022-12-17T04:11:32.726Z,2.38
2022-12-17T04:14:14.891Z,5.40
2022-12-17T04:17:00.637Z,2.35
2022-12-17T04:19:46.194Z,1.50
2022-12-17T04:22:31.922Z,3.80
2022-12-17T04:25:18.912Z,3.38
2022-12-17T04:28:04.282Z,2.97
2022-12-17T04:30:46.253Z,1.48
2022-12-17T04:33:31.936Z,1.98
2022-12-17T04:36:30.263Z,1.73
2022-12-17T04:39:16.059Z,4.18
2022-12-17T04:42:03.937Z,1.60
2022-12-17T04:44:50.705Z,3.13
2022-12-17T04:47:38.799Z,2.40
2022-12-17T04:50:24.651Z,3.33
2022-12-17T04:53:19.710Z,1.75
2022-12-17T04:56:05.527Z,2.22
2022-12-17T04:58:52.820Z,2.75
2022-12-17T05:01:39.995Z,1.45
2022-12-17T05:04:25.498Z,1.27
2022-12-17T05:07:11.619Z,1.25
2022-12-17T05:09:58.561Z,5.63
2022-12-17T05:12:44.329Z,0.95
2022-12-17T05:15:31.431Z,5.07
2022-12-17T05:18:25.588Z,1.08
2022-12-17T05:21:13.310Z,1.70
2022-12-17T05:23:59.074Z,1.55
2022-12-17T05:26:49.725Z,4.22
2022-12-17T05:29:36.819Z,1.45
2022-12-17T05:32:24.251Z,2.03
2022-12-17T05:35:11.474Z,6.43
2022-12-17T05:37:57.327Z,3.88
2022-12-17T05:40:42.739Z,2.30
2022-12-17T05:43:30.684Z,1.00
2022-12-17T05:46:19.279Z,2.10
2022-12-17T05:49:06.531Z,1.40
2022-12-17T05:51:52.312Z,1.38
2022-12-17T05:54:39.140Z,5.50
2022-12-17T05:57:24.554Z,2.80
2022-12-17T06:00:10.085Z,1.45
2022-12-17T06:02:56.414Z,1.90
2022-12-17T06:05:44.620Z,2.65
2022-12-17T06:08:31.250Z,1.10
2022-12-17T06:11:18.278Z,2.13
2022-12-17T06:14:06.282Z,5.00
2022-12-17T06:16:52.995Z,2.30
2022-12-17T06:19:38.473Z,1.52
2022-12-17T06:22:27.391Z,3.53
2022-12-17T06:25:13.486Z,2.92
2022-12-17T06:27:58.900Z,1.63
2022-12-17T06:30:44.608Z,5.32
2022-12-17T06:33:30.855Z,4.00
2022-12-17T06:36:22.441Z,2.28
2022-12-17T06:39:10.026Z,1.25
2022-12-17T06:42:04.201Z,2.70
2022-12-17T06:44:52.604Z,4.57
2022-12-17T06:47:39.579Z,2.17
2022-12-17T06:50:25.932Z,4.60
2022-12-17T06:53:18.774Z,0.80
2022-12-17T06:56:05.576Z,0.93
2022-12-17T06:58:51.552Z,2.85
2022-12-17T07:01:37.863Z,1.33
2022-12-17T07:04:23.985Z,2.47
2022-12-17T07:07:09.344Z,3.75
2022-12-17T07:09:55.645Z,1.92
2022-12-17T07:12:44.773Z,4.78
2022-12-17T07:15:31.256Z,2.67
2022-12-17T07:18:15.152Z,1.75
2022-12-17T07:21:01.598Z,4.22
2022-12-17T07:23:47.383Z,1.55
2022-12-17T07:26:33.490Z,3.08
2022-12-17T07:29:21.607Z,2.22
2022-12-17T07:32:07.479Z,4.53
2022-12-17T07:34:52.999Z,1.70
2022-12-17T07:37:38.385Z,4.47
2022-12-17T07:40:24.879Z,3.95
2022-12-17T07:43:10.346Z,1.02
2022-12-17T07:45:57.168Z,2.17
2022-12-17T07:48:43.249Z,1.33
2022-12-17T07:51:29.253Z,1.88
2022-12-17T07:54:19.994Z,6.32
2022-12-17T07:57:06.151Z,2.25
2022-12-17T07:59:51.924Z,9.40
2022-12-17T08:02:41.912Z,1.33
2022-12-17T08:08:14.717Z,3.53
2022-12-17T08:11:00.611Z,4.55
2022-12-17T08:13:46.437Z,4.97
2022-12-17T08:16:32.205Z,7.90
2022-12-17T08:19:19.406Z,4.47
2022-12-17T08:22:04.989Z,1.17
2022-12-17T08:24:50.529Z,2.17
2022-12-17T08:27:36.325Z,5.50
2022-12-17T08:30:22.664Z,4.65
2022-12-17T08:33:08.654Z,2.97
2022-12-17T08:35:55.314Z,2.70
2022-12-17T08:38:41.361Z,2.40
2022-12-17T08:41:27.149Z,8.70
2022-12-17T08:44:14.831Z,8.15
2022-12-17T08:47:01.550Z,6.13
2022-12-17T08:49:53.482Z,11.43
2022-12-17T08:52:48.117Z,8.32
2022-12-17T08:55:33.880Z,12.73
2022-12-17T08:58:19.770Z,7.82
2022-12-17T09:01:08.542Z,8.43
2022-12-17T09:03:56.676Z,5.70
2022-12-17T09:06:50.646Z,7.18
2022-12-17T09:09:39.103Z,7.20
2022-12-17T09:12:27.899Z,4.90
2022-12-17T09:15:18.062Z,3.95
2022-12-17T09:18:04.173Z,3.55
2022-12-17T09:20:50.153Z,4.43
2022-12-17T09:23:39.505Z,7.10
2022-12-17T09:26:33.349Z,2.63
2022-12-17T09:29:21.861Z,6.70
2022-12-17T09:32:08.246Z,6.57
2022-12-17T09:34:55.710Z,3.17
2022-12-17T09:37:42.533Z,3.00
2022-12-17T09:40:37.162Z,4.45
2022-12-17T09:43:39.776Z,3.88
2022-12-17T09:46:41.447Z,5.32
2022-12-17T09:49:37.620Z,14.88
2022-12-17T09:52:37.577Z,5.70
2022-12-17T09:56:10.248Z,4.53
2022-12-17T09:59:04.152Z,26.50
2022-12-17T10:02:01.148Z,22.25
2022-12-17T10:04:56.352Z,15.93
2022-12-17T10:07:44.761Z,15.90
2022-12-17T10:10:40.757Z,9.98
2022-12-17T10:13:37.974Z,7.72
2022-12-17T10:16:47.440Z,46.25
2022-12-17T10:19:46.270Z,50.17
2022-12-17T10:22:39.123Z,22.15
2022-12-17T10:25:35.623Z,24.63
2022-12-17T10:28:26.872Z,34.08
2022-12-17T10:31:14.220Z,21.25
2022-12-17T10:34:06.511Z,31.17
2022-12-17T10:37:03.337Z,20.77
2022-12-17T10:40:18.159Z,13.52
2022-12-17T10:43:07.590Z,9.95
2022-12-17T10:45:56.370Z,9.38
2022-12-17T10:48:50.477Z,8.32
2022-12-17T10:51:40.462Z,6.28
2022-12-17T10:54:45.446Z,10.15
2022-12-17T10:57:49.359Z,5.93
2022-12-17T11:01:14.498Z,6.65
2022-12-17T11:04:09.128Z,6.32
2022-12-17T11:06:59.807Z,5.28
2022-12-17T11:10:06.964Z,7.95
2022-12-17T11:12:58.282Z,6.07
2022-12-17T11:15:50.869Z,14.85
2022-12-17T11:18:41.648Z,8.00
2022-12-17T11:21:33.748Z,6.93
2022-12-17T11:24:34.860Z,10.73
2022-12-17T11:27:26.925Z,5.40
2022-12-17T11:30:15.811Z,8.55
2022-12-17T11:33:25.174Z,11.50
2022-12-17T11:36:36.811Z,5.22
2022-12-17T11:40:02.587Z,10.55
2022-12-17T11:42:55.599Z,5.45
2022-12-17T11:45:51.699Z,7.85
2022-12-17T11:48:47.208Z,11.45
2022-12-17T11:51:43.918Z,15.65
2022-12-17T11:54:41.170Z,11.70
2022-12-17T11:57:37.107Z,11.27
2022-12-17T12:00:38.634Z,9.55
2022-12-17T12:03:55.576Z,6.22
2022-12-17T12:06:55.419Z,5.07
2022-12-17T12:09:57.462Z,6.28
2022-12-17T12:13:03.012Z,7.03
2022-12-17T12:16:01.893Z,7.93
2022-12-17T12:19:04.752Z,11.07
2022-12-17T12:22:03.235Z,5.35
2022-12-17T12:25:21.278Z,5.50
2022-12-17T12:28:25.185Z,5.25
2022-12-17T12:31:31.548Z,3.42
2022-12-17T12:34:21.685Z,5.35
2022-12-17T12:37:11.799Z,5.15
2022-12-17T12:40:11.454Z,3.20
2022-12-17T12:43:05.095Z,5.15
2022-12-17T12:46:03.863Z,5.68
2022-12-17T12:49:12.532Z,2.28
2022-12-17T12:52:00.423Z,3.08
2022-12-17T12:54:57.568Z,3.72
2022-12-17T12:57:57.890Z,3.67
2022-12-17T13:01:07.212Z,2.88
2022-12-17T13:04:01.818Z,4.30
2022-12-17T13:06:43.532Z,3.38
2022-12-17T13:09:54.281Z,5.97
2022-12-17T13:12:45.229Z,3.40
2022-12-17T13:15:33.060Z,3.42
2022-12-17T13:18:21.388Z,6.40
2022-12-17T13:21:01.810Z,8.85
2022-12-17T13:23:36.741Z,6.53
2022-12-17T13:26:25.044Z,3.25
2022-12-17T13:29:14.875Z,2.60
2022-12-17T13:32:10.111Z,3.13
2022-12-17T13:34:57.076Z,6.47
2022-12-17T13:37:37.802Z,2.88
2022-12-17T13:40:21.864Z,2.63
2022-12-17T13:42:53.302Z,2.85
2022-12-17T13:45:29.699Z,2.55
2022-12-17T13:48:01.112Z,1.02
2022-12-17T13:50:36.598Z,4.13
2022-12-17T13:53:20.838Z,1.20
2022-12-17T13:56:08.279Z,2.78
2022-12-17T13:58:37.369Z,5.53
2022-12-17T14:01:19.474Z,7.17
2022-12-17T14:04:07.130Z,3.30
2022-12-17T14:06:47.465Z,2.50
2022-12-17T14:09:27.091Z,3.85
2022-12-17T14:12:22.830Z,5.35
2022-12-17T14:14:57.653Z,7.32
2022-12-17T14:20:37.077Z,4.18
2022-12-17T14:23:31.768Z,5.13
2022-12-17T14:26:07.831Z,2.00
2022-12-17T14:28:57.408Z,1.17
2022-12-17T14:31:39.392Z,1.67
2022-12-17T14:34:12.053Z,2.55
2022-12-17T14:36:47.914Z,3.38
2022-12-17T14:39:26.151Z,1.73
2022-12-17T14:42:18.350Z,1.10
2022-12-17T14:45:03.080Z,31.95
2022-12-17T14:47:37.341Z,15.10
2022-12-17T14:50:38.042Z,44.88
2022-12-17T14:53:29.213Z,15.15
2022-12-17T14:56:01.900Z,19.92
2022-12-17T14:58:36.038Z,28.88
2022-12-17T15:01:16.817Z,6.65
2022-12-17T15:03:53.539Z,4.03
2022-12-17T15:06:33.194Z,8.00
2022-12-17T15:09:03.354Z,3.45
2022-12-17T15:14:09.777Z,2.78
2022-12-17T15:16:38.034Z,3.90
2022-12-17T15:19:09.990Z,5.63
2022-12-17T15:24:27.294Z,4.45
2022-12-17T15:26:55.466Z,6.82
2022-12-17T15:29:24.749Z,4.05
2022-12-17T15:32:07.945Z,6.57
2022-12-17T15:34:38.688Z,32.60
2022-12-17T15:37:33.974Z,109.65
2022-12-17T15:40:02.613Z,42.28
2022-12-17T15:42:51.054Z,25.23
2022-12-17T15:45:45.382Z,11.80
2022-12-17T15:48:18.484Z,9.43
2022-12-17T15:50:47.191Z,23.65
2022-12-17T15:53:19.151Z,9.38
2022-12-17T15:55:47.598Z,8.68
2022-12-17T15:58:16.728Z,8.10
2022-12-17T16:00:44.897Z,7.03
2022-12-17T16:03:14.910Z,7.45
2022-12-17T16:05:49.451Z,6.68
2022-12-17T16:08:19.468Z,13.65
2022-12-17T16:10:50.069Z,15.50
2022-12-17T16:13:18.459Z,23.25
2022-12-17T16:15:48.866Z,30.23
2022-12-17T16:18:19.884Z,25.58
2022-12-17T16:20:47.999Z,17.98
2022-12-17T16:23:16.106Z,18.90
2022-12-17T16:25:45.804Z,49.50
2022-12-17T16:28:14.272Z,96.72
2022-12-17T16:30:43.158Z,75.63
2022-12-17T16:33:14.456Z,61.78
2022-12-17T16:35:45.155Z,70.40
2022-12-17T16:38:13.902Z,71.47
2022-12-17T16:40:43.631Z,61.97
2022-12-17T16:43:13.119Z,54.42
2022-12-17T16:45:52.134Z,35.83
2022-12-17T16:48:22.236Z,42.85
2022-12-17T16:50:51.326Z,30.97
2022-12-17T16:53:21.444Z,24.73
2022-12-17T16:58:20.996Z,27.52
2022-12-17T17:03:26.467Z,31.40
2022-12-17T17:06:05.086Z,41.47
2022-12-17T17:08:33.481Z,22.20
2022-12-17T17:11:11.054Z,29.50
2022-12-17T17:13:46.038Z,25.20
2022-12-17T17:16:18.424Z,27.38
2022-12-17T17:18:51.594Z,29.95
2022-12-17T17:21:29.636Z,32.35
2022-12-17T17:24:01.516Z,29.80
2022-12-17T17:26:31.969Z,46.60
2022-12-17T17:29:02.305Z,51.20
2022-12-17T17:34:19.409Z,56.80
2022-12-17T17:36:47.721Z,52.95
2022-12-17T17:39:16.123Z,44.00
2022-12-17T17:41:44.993Z,39.53
2022-12-17T17:44:15.734Z,36.28
2022-12-17T17:46:44.240Z,32.67
2022-12-17T17:49:14.132Z,38.00
2022-12-17T17:54:34.787Z,41.75
2022-12-17T17:57:04.857Z,37.15
2022-12-17T18:02:05.171Z,34.10
2022-12-17T18:04:34.531Z,36.13
2022-12-17T18:07:28.708Z,31.08
2022-12-17T18:09:59.850Z,33.65
2022-12-17T18:12:45.754Z,45.45
2022-12-17T18:15:17.279Z,42.78
2022-12-17T18:17:50.509Z,49.25
2022-12-17T18:20:19.418Z,59.33
2022-12-17T18:22:47.724Z,52.72
2022-12-17T18:25:16.817Z,62.85
2022-12-17T18:27:45.584Z,54.27
2022-12-17T18:30:16.530Z,40.47
2022-12-17T18:32:45.109Z,28.90
2022-12-17T18:35:13.666Z,42.85
2022-12-17T18:37:56.489Z,53.30
2022-12-17T18:40:27.604Z,41.10
2022-12-17T18:43:22.158Z,36.28
2022-12-17T18:45:55.016Z,52.13
2022-12-17T18:48:27.244Z,41.95
2022-12-17T18:51:02.869Z,35.72
2022-12-17T18:53:35.110Z,35.33
2022-12-17T18:56:09.448Z,28.30
2022-12-17T18:58:38.210Z,40.03
2022-12-17T19:01:09.475Z,31.15
2022-12-17T19:03:39.319Z,32.40
2022-12-17T19:06:09.012Z,28.48
2022-12-17T19:08:37.892Z,20.75
2022-12-17T19:11:08.144Z,14.27
2022-12-17T19:13:37.355Z,24.17
2022-12-17T19:16:10.653Z,23.20
2022-12-17T19:18:39.361Z,18.25
2022-12-17T19:21:09.718Z,20.70
2022-12-17T19:26:09.915Z,16.92
2022-12-17T19:28:38.719Z,16.77
2022-12-17T19:31:12.045Z,45.83
2022-12-17T19:33:42.332Z,67.57
2022-12-17T19:36:13.788Z,82.15
2022-12-17T19:38:42.802Z,58.50
2022-12-17T19:41:15.092Z,53.42
2022-12-17T19:43:43.990Z,46.63
2022-12-17T19:46:17.562Z,49.53
2022-12-17T19:48:49.813Z,49.88
2022-12-17T19:51:24.274Z,40.42
2022-12-17T19:53:55.984Z,45.17
2022-12-17T19:56:26.361Z,42.63
2022-12-17T19:58:58.422Z,42.65
2022-12-17T20:01:33.412Z,40.05
2022-12-17T20:04:02.162Z,38.20
2022-12-17T20:06:54.800Z,35.30
2022-12-17T20:09:23.431Z,41.70
2022-12-17T20:11:53.959Z,37.08
2022-12-17T20:14:28.807Z,52.03
2022-12-17T20:17:16.363Z,42.35
2022-12-17T20:19:44.951Z,44.50
2022-12-17T20:22:15.502Z,47.55
2022-12-17T20:24:43.836Z,40.42
2022-12-17T20:27:12.155Z,40.55
2022-12-17T20:29:40.729Z,26.83
2022-12-17T20:32:10.603Z,26.80
2022-12-17T20:34:39.006Z,35.97
2022-12-17T20:37:21.953Z,50.10
2022-12-17T20:40:29.063Z,48.08
2022-12-17T20:43:18.627Z,73.20
2022-12-17T20:45:51.488Z,77.82
2022-12-17T20:48:21.384Z,64.50
2022-12-17T20:50:50.055Z,59.80
2022-12-17T20:53:18.794Z,65.70
2022-12-17T20:55:47.874Z,58.58
2022-12-17T20:58:16.935Z,49.55
2022-12-17T21:00:51.182Z,49.60
2022-12-17T21:03:24.808Z,41.88
2022-12-17T21:05:54.482Z,37.75
2022-12-17T21:08:23.266Z,28.33
2022-12-17T21:10:57.298Z,23.13
2022-12-17T21:13:32.696Z,23.80
2022-12-17T21:16:04.560Z,30.92
2022-12-17T21:18:34.949Z,25.08
2022-12-17T21:21:06.818Z,21.73
2022-12-17T21:23:36.672Z,24.70
2022-12-17T21:26:10.450Z,24.17
2022-12-17T21:28:41.744Z,22.63
2022-12-17T21:31:17.885Z,28.55
2022-12-17T21:33:48.972Z,47.22
2022-12-17T21:36:21.394Z,16.27
2022-12-17T21:38:50.852Z,19.52
2022-12-17T21:41:22.442Z,21.83
2022-12-17T21:43:54.618Z,19.75
2022-12-17T21:46:28.789Z,21.65
2022-12-17T21:49:02.030Z,22.13
2022-12-17T21:51:33.004Z,19.67
2022-12-17T21:56:38.109Z,16.73
2022-12-17T21:59:07.825Z,23.25
2022-12-17T22:01:36.524Z,35.75
2022-12-17T22:04:06.882Z,26.42
2022-12-17T22:06:42.008Z,15.35
2022-12-17T22:09:24.455Z,19.73
2022-12-17T22:12:25.146Z,11.05
2022-12-17T22:14:54.474Z,13.10
2022-12-17T22:17:23.696Z,16.27
2022-12-17T22:19:53.444Z,23.58
2022-12-17T22:22:23.627Z,22.48
2022-12-17T22:24:53.632Z,20.33
2022-12-17T22:30:07.655Z,15.45
2022-12-17T22:32:53.414Z,18.90
2022-12-17T22:36:39.574Z,15.98
2022-12-17T22:41:28.509Z,11.88
2022-12-17T22:44:39.223Z,15.50
2022-12-17T22:44:44.343Z,9.57
2022-12-17T22:46:49.999Z,11.60
2022-12-17T22:49:18.678Z,12.23
2022-12-17T22:51:48.528Z,14.70
2022-12-17T22:54:16.665Z,13.35
2022-12-17T22:57:25.250Z,14.93
2022-12-17T22:59:33.389Z,17.60
2022-12-17T23:02:01.826Z,7.95
2022-12-17T23:04:30.343Z,10.45
2022-12-17T23:07:03.553Z,13.95
2022-12-17T23:09:32.018Z,13.05
2022-12-17T23:12:21.091Z,20.08
2022-12-17T23:14:49.357Z,19.63
2022-12-17T23:17:17.435Z,16.00
2022-12-17T23:19:50.621Z,24.77
2022-12-17T23:22:22.628Z,21.08
2022-12-17T23:24:52.597Z,22.10
2022-12-17T23:27:20.942Z,16.88
2022-12-17T23:29:52.282Z,17.38
2022-12-17T23:32:39.269Z,13.55
2022-12-17T23:35:11.109Z,17.60
2022-12-17T23:37:41.078Z,14.65
2022-12-17T23:40:12.046Z,20.90
2022-12-17T23:42:40.792Z,11.65
2022-12-17T23:45:11.916Z,11.85
2022-12-17T23:47:41.240Z,7.63
2022-12-17T23:50:15.232Z,17.75
2022-12-17T23:52:45.081Z,11.38
2022-12-17T23:55:15.957Z,14.30
2022-12-17T23:57:46.939Z,6.47
